createdAt,value
2022-12-28T00:02:16.306Z,65.29
2022-12-28T00:04:43.084Z,65.29
2022-12-28T00:07:09.843Z,64.66
2022-12-28T00:09:36.414Z,64.82
2022-12-28T00:12:03.218Z,64.93
2022-12-28T00:14:29.883Z,64.49
2022-12-28T00:16:59.234Z,64.47
2022-12-28T00:19:25.777Z,63.89
2022-12-28T00:21:53.594Z,64.00
2022-12-28T00:24:22.226Z,63.98
2022-12-28T00:26:49.283Z,64.08
2022-12-28T00:29:16.492Z,63.64
2022-12-28T00:31:43.254Z,63.96
2022-12-28T00:34:10.310Z,63.70
2022-12-28T00:37:09.011Z,63.70
2022-12-28T00:39:23.474Z,63.92
2022-12-28T00:41:49.961Z,63.94
2022-12-28T00:44:16.644Z,63.62
2022-12-28T00:46:43.331Z,63.58
2022-12-28T00:49:11.441Z,63.90
2022-12-28T00:51:38.005Z,63.87
2022-12-28T00:54:04.787Z,63.27
2022-12-28T00:56:31.860Z,63.70
2022-12-28T00:58:58.781Z,64.45
2022-12-28T01:01:26.171Z,63.96
2022-12-28T01:03:54.943Z,64.42
2022-12-28T01:06:21.559Z,63.88
2022-12-28T01:08:48.556Z,64.58
2022-12-28T01:11:25.483Z,63.82
2022-12-28T01:13:54.239Z,64.57
2022-12-28T01:16:22.442Z,64.50
2022-12-28T01:18:51.939Z,64.02
2022-12-28T01:21:21.082Z,63.77
2022-12-28T01:23:48.345Z,63.29
2022-12-28T01:26:15.400Z,62.74
2022-12-28T01:28:42.365Z,62.81
2022-12-28T01:31:10.348Z,61.74
2022-12-28T01:33:38.152Z,62.33
2022-12-28T01:36:08.541Z,61.90
2022-12-28T01:38:37.347Z,61.84
2022-12-28T01:41:07.140Z,62.07
2022-12-28T01:43:45.577Z,62.05
2022-12-28T01:46:20.589Z,61.88
2022-12-28T01:48:57.304Z,61.39
2022-12-28T01:51:25.053Z,61.53
2022-12-28T01:53:53.954Z,61.13
2022-12-28T01:56:22.016Z,62.02
2022-12-28T01:58:49.306Z,62.12
2022-12-28T02:01:17.657Z,62.08
2022-12-28T02:03:44.325Z,62.36
2022-12-28T02:06:12.658Z,62.85
2022-12-28T02:09:04.003Z,63.10
2022-12-28T02:11:31.283Z,62.68
2022-12-28T02:13:58.780Z,62.79
2022-12-28T02:16:25.614Z,62.73
2022-12-28T02:18:52.576Z,62.31
2022-12-28T02:21:23.869Z,62.44
2022-12-28T02:23:50.342Z,62.77
2022-12-28T02:26:23.075Z,62.51
2022-12-28T02:29:07.973Z,62.74
2022-12-28T02:31:46.626Z,62.37
2022-12-28T02:34:13.203Z,62.78
2022-12-28T02:36:43.373Z,62.75
2022-12-28T02:39:13.936Z,63.26
2022-12-28T02:41:42.078Z,63.34
2022-12-28T02:44:09.305Z,63.12
2022-12-28T02:46:54.561Z,62.83
2022-12-28T02:49:41.521Z,64.11
2022-12-28T02:52:12.073Z,63.52
2022-12-28T02:55:35.938Z,63.29
2022-12-28T02:58:14.757Z,62.54
2022-12-28T03:00:50.507Z,62.36
2022-12-28T03:03:20.179Z,62.51
2022-12-28T03:06:08.776Z,62.67
2022-12-28T03:08:38.295Z,61.60
2022-12-28T03:11:08.369Z,62.46
2022-12-28T03:13:46.864Z,63.05
2022-12-28T03:16:20.715Z,63.06
2022-12-28T03:19:08.945Z,62.75
2022-12-28T03:21:55.195Z,62.59
2022-12-28T03:24:41.417Z,62.12
2022-12-28T03:27:30.352Z,62.24
2022-12-28T03:30:23.851Z,62.22
2022-12-28T03:32:50.754Z,62.52
2022-12-28T03:35:19.609Z,62.88
2022-12-28T03:37:58.188Z,62.54
2022-12-28T03:40:31.089Z,63.24
2022-12-28T03:43:19.300Z,63.01
2022-12-28T03:45:47.446Z,62.33
2022-12-28T03:48:17.330Z,62.20
2022-12-28T03:50:47.049Z,62.83
2022-12-28T03:53:20.402Z,62.58
2022-12-28T03:55:49.118Z,63.00
2022-12-28T03:58:18.723Z,63.18
2022-12-28T04:00:45.496Z,62.84
2022-12-28T04:03:14.906Z,62.41
2022-12-28T04:05:44.835Z,62.83
2022-12-28T04:08:11.570Z,62.59
2022-12-28T04:10:38.126Z,62.54
2022-12-28T04:13:04.767Z,62.39
2022-12-28T04:16:00.912Z,62.28
2022-12-28T04:18:30.220Z,62.59
2022-12-28T04:20:57.620Z,61.83
2022-12-28T04:23:24.681Z,62.35
2022-12-28T04:26:02.042Z,62.58
2022-12-28T04:28:29.141Z,61.84
2022-12-28T04:31:14.445Z,61.53
2022-12-28T04:33:48.300Z,61.47
2022-12-28T04:36:15.949Z,61.97
2022-12-28T04:38:44.113Z,61.34
2022-12-28T04:41:11.019Z,61.46
2022-12-28T04:43:37.827Z,61.46
2022-12-28T04:46:05.863Z,61.09
2022-12-28T04:48:32.852Z,61.80
2022-12-28T04:51:05.687Z,62.29
2022-12-28T04:53:32.304Z,61.75
2022-12-28T04:56:02.905Z,62.02
2022-12-28T04:58:29.660Z,62.65
2022-12-28T05:01:02.276Z,61.72
2022-12-28T05:03:28.927Z,61.86
2022-12-28T05:05:59.374Z,61.79
2022-12-28T05:08:26.240Z,61.92
2022-12-28T05:10:52.811Z,61.98
2022-12-28T05:13:19.349Z,62.00
2022-12-28T05:15:45.956Z,62.49
2022-12-28T05:18:12.520Z,62.42
2022-12-28T05:20:39.009Z,61.94
2022-12-28T05:23:05.557Z,62.14
2022-12-28T05:25:32.166Z,61.77
2022-12-28T05:27:58.787Z,61.59
2022-12-28T05:30:25.393Z,61.55
2022-12-28T05:32:51.855Z,62.13
2022-12-28T05:35:18.357Z,62.42
2022-12-28T05:37:44.884Z,62.96
2022-12-28T05:40:11.926Z,63.14
2022-12-28T05:42:38.512Z,62.65
2022-12-28T05:45:05.376Z,62.99
2022-12-28T05:47:32.183Z,62.63
2022-12-28T05:49:58.735Z,63.23
2022-12-28T05:52:25.294Z,63.04
2022-12-28T05:54:55.955Z,62.34
2022-12-28T05:57:22.518Z,62.69
2022-12-28T05:59:49.266Z,63.01
2022-12-28T06:02:20.280Z,61.94
2022-12-28T06:04:49.871Z,62.26
2022-12-28T06:07:16.354Z,62.06
2022-12-28T06:09:43.028Z,62.09
2022-12-28T06:12:09.580Z,62.34
2022-12-28T06:14:36.161Z,61.58
2022-12-28T06:17:02.727Z,62.44
2022-12-28T06:19:29.236Z,62.74
2022-12-28T06:21:55.903Z,62.40
2022-12-28T06:24:22.378Z,62.87
2022-12-28T06:26:51.126Z,62.40
2022-12-28T06:29:17.970Z,62.22
2022-12-28T06:31:47.091Z,62.65
2022-12-28T06:34:13.774Z,62.77
2022-12-28T06:36:42.167Z,62.53
2022-12-28T06:39:12.707Z,62.40
2022-12-28T06:41:40.052Z,62.79
2022-12-28T06:44:08.083Z,62.55
2022-12-28T06:46:35.427Z,62.54
2022-12-28T06:49:02.356Z,61.88
2022-12-28T06:51:30.010Z,62.19
2022-12-28T06:53:56.823Z,61.94
2022-12-28T06:56:28.314Z,61.61
2022-12-28T06:59:00.533Z,61.40
2022-12-28T07:01:33.520Z,62.09
2022-12-28T07:04:00.902Z,61.60
2022-12-28T07:06:28.256Z,61.63
2022-12-28T07:09:01.883Z,61.59
2022-12-28T07:11:29.292Z,62.24
2022-12-28T07:13:56.408Z,61.82
2022-12-28T07:16:23.870Z,62.02
2022-12-28T07:18:50.566Z,62.04
2022-12-28T07:21:18.364Z,62.49
2022-12-28T07:23:45.035Z,61.64
2022-12-28T07:26:12.873Z,61.35
2022-12-28T07:28:40.438Z,61.62
2022-12-28T07:31:08.274Z,61.75
2022-12-28T07:33:35.947Z,61.60
2022-12-28T07:36:03.312Z,61.84
2022-12-28T07:38:30.041Z,61.70
2022-12-28T07:41:04.460Z,61.64
2022-12-28T07:43:31.073Z,61.55
2022-12-28T07:46:01.630Z,61.51
2022-12-28T07:48:29.213Z,60.96
2022-12-28T07:50:55.817Z,61.39
2022-12-28T07:53:22.455Z,61.09
2022-12-28T07:55:58.996Z,61.37
2022-12-28T07:58:25.725Z,61.16
2022-12-28T08:00:52.322Z,61.53
2022-12-28T08:03:19.629Z,61.04
2022-12-28T08:05:46.217Z,61.05
2022-12-28T08:08:12.862Z,61.48
2022-12-28T08:10:39.487Z,61.24
2022-12-28T08:13:06.172Z,61.07
2022-12-28T08:15:32.794Z,60.36
2022-12-28T08:17:59.539Z,60.98
2022-12-28T08:20:26.241Z,60.20
2022-12-28T08:22:53.416Z,59.97
2022-12-28T08:25:19.980Z,59.82
2022-12-28T08:27:46.912Z,60.25
2022-12-28T08:30:16.702Z,60.14
2022-12-28T08:32:46.159Z,59.44
2022-12-28T08:35:12.814Z,59.54
2022-12-28T08:37:42.756Z,58.91
2022-12-28T08:40:12.403Z,59.25
2022-12-28T08:42:39.329Z,59.41
2022-12-28T08:45:06.170Z,58.79
2022-12-28T08:47:32.883Z,59.02
2022-12-28T08:50:00.880Z,58.61
2022-12-28T08:52:27.671Z,58.70
2022-12-28T08:54:54.223Z,59.42
2022-12-28T08:57:21.180Z,59.34
2022-12-28T08:59:47.986Z,59.70
2022-12-28T09:02:14.920Z,59.50
2022-12-28T09:04:42.013Z,59.44
2022-12-28T09:07:08.674Z,59.76
2022-12-28T09:09:35.338Z,59.55
2022-12-28T09:12:01.997Z,59.34
2022-12-28T09:14:28.564Z,59.29
2022-12-28T09:16:55.388Z,59.08
2022-12-28T09:19:22.738Z,58.78
2022-12-28T09:21:52.389Z,58.22
2022-12-28T09:24:19.204Z,57.40
2022-12-28T09:26:45.898Z,58.08
2022-12-28T09:29:13.854Z,57.67
2022-12-28T09:31:41.473Z,57.56
2022-12-28T09:36:57.971Z,58.08
2022-12-28T09:39:25.181Z,57.13
2022-12-28T09:42:10.581Z,57.61
2022-12-28T09:44:37.105Z,57.04
2022-12-28T09:47:23.234Z,56.51
2022-12-28T09:49:58.120Z,56.31
2022-12-28T09:52:35.490Z,56.02
2022-12-28T09:55:13.693Z,56.07
2022-12-28T09:57:44.978Z,56.47
2022-12-28T10:00:19.594Z,55.86
2022-12-28T10:02:50.942Z,55.72
2022-12-28T10:05:17.665Z,55.91
2022-12-28T10:07:44.279Z,55.64
2022-12-28T10:10:16.198Z,56.27
2022-12-28T10:12:43.791Z,55.67
2022-12-28T10:15:12.334Z,55.30
2022-12-28T10:17:39.121Z,55.22
2022-12-28T10:20:08.014Z,53.75
2022-12-28T10:22:43.525Z,53.48
2022-12-28T10:25:14.348Z,53.04
2022-12-28T10:27:40.935Z,52.59
2022-12-28T10:30:14.477Z,52.26
2022-12-28T10:33:02.961Z,51.47
2022-12-28T10:35:36.081Z,51.76
2022-12-28T10:38:04.363Z,51.71
2022-12-28T10:40:32.985Z,51.18
2022-12-28T10:43:02.105Z,50.79
2022-12-28T10:45:32.162Z,50.34
2022-12-28T10:47:58.781Z,50.06
2022-12-28T10:50:40.150Z,49.66
2022-12-28T10:53:26.489Z,49.85
2022-12-28T10:56:12.017Z,50.23
2022-12-28T10:58:43.714Z,49.93
2022-12-28T11:01:13.414Z,49.67
2022-12-28T11:03:44.675Z,49.53
2022-12-28T11:06:18.655Z,49.48
2022-12-28T11:08:59.406Z,49.69
2022-12-28T11:11:26.311Z,50.72
2022-12-28T11:14:00.364Z,50.25
2022-12-28T11:16:30.165Z,49.89
2022-12-28T11:18:57.754Z,49.74
2022-12-28T11:21:25.631Z,50.22
2022-12-28T11:23:53.203Z,51.08
2022-12-28T11:26:20.516Z,51.00
2022-12-28T11:28:49.439Z,50.67
2022-12-28T11:31:38.753Z,50.80
2022-12-28T11:34:07.581Z,50.55
2022-12-28T11:36:38.878Z,50.11
2022-12-28T11:39:24.520Z,50.33
2022-12-28T11:44:50.299Z,50.48
2022-12-28T11:47:16.807Z,50.66
2022-12-28T11:49:47.448Z,50.69
2022-12-28T11:52:17.178Z,50.74
2022-12-28T11:54:58.043Z,51.09
2022-12-28T11:57:38.382Z,51.65
2022-12-28T12:00:31.246Z,52.00
2022-12-28T12:03:02.157Z,52.22
2022-12-28T12:05:38.227Z,52.56
2022-12-28T12:08:17.114Z,52.25
2022-12-28T12:10:44.672Z,52.25
2022-12-28T12:13:26.362Z,52.51
2022-12-28T12:15:52.851Z,51.82
2022-12-28T12:18:22.104Z,51.98
2022-12-28T12:20:53.777Z,51.28
2022-12-28T12:23:36.420Z,50.94
2022-12-28T12:26:21.851Z,50.42
2022-12-28T12:28:50.103Z,50.13
2022-12-28T12:31:23.037Z,50.51
2022-12-28T12:33:51.330Z,50.81
2022-12-28T12:36:26.973Z,51.03
2022-12-28T12:38:59.471Z,51.04
2022-12-28T12:41:38.895Z,51.42
2022-12-28T12:44:22.903Z,51.53
2022-12-28T12:47:05.889Z,51.83
2022-12-28T12:49:32.796Z,52.15
2022-12-28T12:52:14.573Z,52.01
2022-12-28T12:54:41.083Z,52.05
2022-12-28T12:57:16.916Z,51.97
2022-12-28T12:59:59.274Z,52.18
2022-12-28T13:02:26.019Z,52.97
2022-12-28T13:04:52.768Z,52.58
2022-12-28T13:07:24.039Z,52.29
2022-12-28T13:09:51.847Z,52.49
2022-12-28T13:12:19.535Z,52.04
2022-12-28T13:14:54.455Z,51.65
2022-12-28T13:17:21.669Z,51.59
2022-12-28T13:19:48.390Z,51.62
2022-12-28T13:22:31.839Z,51.64
2022-12-28T13:25:01.098Z,51.74
2022-12-28T13:27:32.304Z,51.65
2022-12-28T13:30:00.444Z,52.03
2022-12-28T13:32:37.545Z,51.65
2022-12-28T13:35:16.504Z,51.58
2022-12-28T13:37:43.079Z,51.72
2022-12-28T13:40:10.807Z,52.16
2022-12-28T13:42:53.252Z,51.97
2022-12-28T13:45:20.803Z,52.35
2022-12-28T13:47:49.271Z,51.88
2022-12-28T13:50:21.007Z,52.25
2022-12-28T13:52:51.780Z,52.42
2022-12-28T13:55:20.562Z,52.15
2022-12-28T13:57:54.145Z,52.20
2022-12-28T14:00:22.956Z,52.50
2022-12-28T14:02:50.587Z,52.06
2022-12-28T14:05:18.649Z,52.29
2022-12-28T14:07:46.017Z,52.92
2022-12-28T14:10:13.272Z,52.44
2022-12-28T14:12:40.356Z,52.88
2022-12-28T14:15:08.399Z,52.81
2022-12-28T14:17:37.622Z,52.30
2022-12-28T14:20:04.965Z,52.50
2022-12-28T14:22:36.122Z,52.75
2022-12-28T14:25:10.928Z,52.67
2022-12-28T14:27:42.751Z,52.75
2022-12-28T14:30:26.753Z,52.62
2022-12-28T14:32:54.210Z,52.84
2022-12-28T14:35:22.998Z,53.23
2022-12-28T14:37:51.324Z,52.87
2022-12-28T14:40:23.441Z,52.83
2022-12-28T14:42:50.473Z,52.41
2022-12-28T14:46:05.456Z,52.63
2022-12-28T14:48:30.048Z,52.72
2022-12-28T14:50:57.340Z,52.64
2022-12-28T14:53:25.007Z,52.40
2022-12-28T14:56:11.273Z,52.81
2022-12-28T14:58:50.963Z,52.68
2022-12-28T15:01:18.023Z,52.80
2022-12-28T15:03:52.427Z,53.00
2022-12-28T15:06:20.392Z,53.34
2022-12-28T15:08:47.811Z,53.33
2022-12-28T15:11:14.465Z,53.60
2022-12-28T15:13:41.454Z,53.94
2022-12-28T15:16:10.945Z,53.80
2022-12-28T15:18:38.678Z,54.32
2022-12-28T15:21:05.599Z,54.14
2022-12-28T15:23:33.322Z,54.11
2022-12-28T15:26:05.746Z,53.98
2022-12-28T15:28:32.487Z,53.90
2022-12-28T15:30:59.077Z,53.91
2022-12-28T15:33:25.815Z,54.58
2022-12-28T15:35:52.552Z,54.15
2022-12-28T15:38:19.141Z,54.00
2022-12-28T15:40:47.076Z,54.87
2022-12-28T15:43:13.688Z,54.80
2022-12-28T15:45:40.297Z,54.95
2022-12-28T15:48:07.208Z,55.22
2022-12-28T15:50:33.776Z,55.57
2022-12-28T15:53:00.328Z,55.43
2022-12-28T15:55:26.822Z,55.21
2022-12-28T15:57:54.812Z,54.89
2022-12-28T16:00:21.461Z,55.28
2022-12-28T16:02:48.292Z,55.06
2022-12-28T16:05:15.006Z,54.97
2022-12-28T16:07:41.616Z,55.17
2022-12-28T16:10:08.439Z,55.02
2022-12-28T16:12:35.117Z,54.96
2022-12-28T16:15:01.684Z,55.31
2022-12-28T16:17:28.308Z,55.11
2022-12-28T16:19:54.796Z,55.03
2022-12-28T16:22:21.279Z,55.17
2022-12-28T16:24:48.750Z,55.35
2022-12-28T16:27:15.423Z,54.98
2022-12-28T16:29:41.967Z,55.09
2022-12-28T16:32:08.677Z,55.09
2022-12-28T16:34:35.216Z,55.48
2022-12-28T16:37:01.775Z,55.53
2022-12-28T16:39:29.111Z,54.93
2022-12-28T16:41:56.374Z,55.14
2022-12-28T16:44:24.112Z,54.85
2022-12-28T16:46:51.190Z,55.08
2022-12-28T16:49:18.123Z,56.08
2022-12-28T16:51:45.681Z,55.41
2022-12-28T16:54:14.289Z,55.95
2022-12-28T16:56:41.028Z,55.56
2022-12-28T16:59:07.525Z,55.58
2022-12-28T17:01:34.055Z,55.39
2022-12-28T17:04:04.181Z,55.26
2022-12-28T17:06:31.272Z,55.94
2022-12-28T17:09:00.078Z,55.68
2022-12-28T17:11:26.743Z,56.13
2022-12-28T17:13:53.268Z,55.41
2022-12-28T17:16:19.915Z,55.88
2022-12-28T17:18:46.407Z,55.55
2022-12-28T17:21:12.896Z,55.36
2022-12-28T17:23:40.248Z,55.44
2022-12-28T17:26:07.168Z,55.41
2022-12-28T17:28:33.731Z,55.66
2022-12-28T17:31:11.419Z,55.72
2022-12-28T17:33:40.062Z,55.72
2022-12-28T17:36:07.432Z,55.80
2022-12-28T17:38:33.920Z,55.76
2022-12-28T17:41:00.406Z,55.83
2022-12-28T17:43:26.986Z,55.65
2022-12-28T17:45:53.584Z,56.11
2022-12-28T17:48:20.271Z,55.99
2022-12-28T17:50:47.145Z,56.31
2022-12-28T17:53:13.935Z,55.79
2022-12-28T17:55:40.461Z,56.22
2022-12-28T17:58:06.955Z,55.80
2022-12-28T18:00:33.565Z,56.12
2022-12-28T18:03:01.397Z,55.58
2022-12-28T18:05:30.226Z,55.37
2022-12-28T18:07:56.824Z,55.24
2022-12-28T18:10:23.308Z,55.42
2022-12-28T18:12:50.606Z,55.65
2022-12-28T18:15:17.284Z,55.30
2022-12-28T18:17:43.830Z,55.33
2022-12-28T18:20:10.294Z,55.46
2022-12-28T18:22:36.803Z,55.30
2022-12-28T18:25:03.412Z,55.97
2022-12-28T18:27:30.156Z,55.83
2022-12-28T18:29:56.797Z,55.61
2022-12-28T18:32:23.368Z,56.06
2022-12-28T18:34:50.090Z,56.03
2022-12-28T18:37:16.574Z,55.93
2022-12-28T18:39:43.087Z,56.19
2022-12-28T18:42:09.563Z,56.13
2022-12-28T18:44:36.058Z,56.01
2022-12-28T18:47:02.490Z,55.94
2022-12-28T18:49:30.267Z,55.93
2022-12-28T18:51:57.049Z,55.62
2022-12-28T18:54:23.960Z,55.85
2022-12-28T18:56:50.521Z,55.70
2022-12-28T18:59:17.064Z,55.36
2022-12-28T19:04:30.746Z,55.23
2022-12-28T19:06:57.380Z,55.33
2022-12-28T19:09:23.922Z,55.48
2022-12-28T19:11:50.435Z,55.47
2022-12-28T19:14:17.143Z,55.64
2022-12-28T19:16:45.108Z,55.86
2022-12-28T19:19:12.126Z,55.67
2022-12-28T19:21:42.195Z,55.63
2022-12-28T19:24:18.690Z,55.78
2022-12-28T19:26:46.102Z,55.83
2022-12-28T19:29:13.067Z,55.63
2022-12-28T19:31:39.730Z,55.61
2022-12-28T19:34:06.315Z,55.17
2022-12-28T19:36:32.922Z,55.48
2022-12-28T19:38:59.558Z,55.46
2022-12-28T19:41:26.171Z,55.61
2022-12-28T19:43:53.049Z,55.25
2022-12-28T19:46:20.775Z,55.13
2022-12-28T19:48:47.375Z,55.10
2022-12-28T19:51:14.726Z,55.09
2022-12-28T19:53:41.326Z,54.84
2022-12-28T19:56:08.782Z,55.19
2022-12-28T19:58:36.073Z,55.47
2022-12-28T20:01:07.070Z,54.92
2022-12-28T20:03:34.126Z,54.79
2022-12-28T20:06:08.568Z,55.00
2022-12-28T20:08:35.433Z,55.55
2022-12-28T20:11:03.398Z,54.84
2022-12-28T20:13:30.596Z,54.93
2022-12-28T20:15:57.392Z,54.55
2022-12-28T20:18:24.139Z,54.30
2022-12-28T20:21:18.657Z,54.53
2022-12-28T20:23:37.458Z,54.98
2022-12-28T20:26:04.043Z,54.57
2022-12-28T20:28:30.679Z,55.23
2022-12-28T20:31:01.527Z,54.31
2022-12-28T20:33:28.773Z,54.06
2022-12-28T20:36:05.736Z,54.04
2022-12-28T20:38:32.879Z,54.54
2022-12-28T20:41:06.813Z,54.39
2022-12-28T20:43:34.265Z,54.12
2022-12-28T20:46:01.852Z,54.00
2022-12-28T20:48:30.699Z,54.03
2022-12-28T20:51:00.836Z,54.09
2022-12-28T20:53:28.023Z,53.82
2022-12-28T20:55:57.687Z,53.72
2022-12-28T20:58:24.346Z,53.91
2022-12-28T21:00:51.433Z,53.97
2022-12-28T21:03:18.155Z,54.03
2022-12-28T21:05:44.776Z,54.13
2022-12-28T21:08:11.331Z,54.16
2022-12-28T21:10:37.846Z,54.36
2022-12-28T21:13:04.451Z,54.48
2022-12-28T21:15:31.210Z,54.37
2022-12-28T21:17:59.343Z,53.92
2022-12-28T21:20:26.571Z,53.42
2022-12-28T21:22:53.143Z,53.51
2022-12-28T21:25:19.797Z,53.27
2022-12-28T21:27:46.321Z,52.93
2022-12-28T21:30:12.989Z,53.43
2022-12-28T21:32:39.631Z,53.16
2022-12-28T21:35:06.332Z,52.88
2022-12-28T21:37:35.861Z,52.76
2022-12-28T21:40:05.559Z,53.14
2022-12-28T21:42:32.182Z,52.69
2022-12-28T21:44:58.779Z,52.74
2022-12-28T21:47:25.418Z,53.01
2022-12-28T21:49:51.996Z,52.88
2022-12-28T21:52:18.687Z,52.65
2022-12-28T21:54:45.286Z,52.95
2022-12-28T21:57:12.098Z,52.72
2022-12-28T21:59:39.131Z,52.86
2022-12-28T22:02:31.100Z,53.07
2022-12-28T22:05:16.980Z,52.81
2022-12-28T22:07:43.607Z,52.88
2022-12-28T22:10:28.732Z,52.57
2022-12-28T22:12:55.921Z,52.59
2022-12-28T22:15:42.110Z,52.90
2022-12-28T22:18:36.574Z,52.83
2022-12-28T22:21:03.048Z,52.60
2022-12-28T22:23:34.377Z,52.53
2022-12-28T22:26:01.443Z,52.71
2022-12-28T22:28:27.893Z,52.70
2022-12-28T22:30:54.392Z,52.83
2022-12-28T22:33:20.984Z,52.94
2022-12-28T22:35:47.480Z,52.63
2022-12-28T22:38:14.039Z,53.10
2022-12-28T22:40:40.527Z,53.01
2022-12-28T22:43:07.033Z,53.22
2022-12-28T22:45:33.486Z,53.69
2022-12-28T22:48:00.169Z,53.42
2022-12-28T22:50:27.397Z,53.47
2022-12-28T22:52:55.502Z,53.21
2022-12-28T22:55:22.018Z,53.34
2022-12-28T22:57:48.486Z,53.28
2022-12-28T23:00:15.071Z,53.29
2022-12-28T23:02:43.575Z,53.40
2022-12-28T23:05:10.327Z,52.95
2022-12-28T23:07:38.577Z,52.74
2022-12-28T23:10:06.166Z,52.78
2022-12-28T23:12:32.698Z,52.96
2022-12-28T23:15:19.656Z,52.82
2022-12-28T23:17:47.653Z,52.82
2022-12-28T23:20:32.965Z,52.78
2022-12-28T23:23:18.331Z,52.84
2022-12-28T23:26:03.511Z,53.00
2022-12-28T23:28:30.021Z,53.39
2022-12-28T23:30:56.866Z,53.53
2022-12-28T23:33:23.875Z,54.07
2022-12-28T23:35:50.642Z,54.35
2022-12-28T23:38:17.393Z,54.13
2022-12-28T23:40:43.872Z,54.08
2022-12-28T23:43:11.063Z,54.42
2022-12-28T23:45:37.599Z,54.98
2022-12-28T23:48:04.675Z,54.65
2022-12-28T23:50:31.196Z,54.90
2022-12-28T23:52:57.720Z,54.65
2022-12-28T23:55:24.191Z,54.74
2022-12-28T23:57:50.728Z,55.22
